createdAt,value
2022-11-05T00:00:38.243Z,56.85
2022-11-05T00:03:28.705Z,57.40
2022-11-05T00:06:14.913Z,59.72
2022-11-05T00:09:14.775Z,61.85
2022-11-05T00:12:01.024Z,67.37
2022-11-05T00:14:47.732Z,63.12
2022-11-05T00:17:15.409Z,57.09
2022-11-05T00:19:43.111Z,56.22
2022-11-05T00:22:29.469Z,57.77
2022-11-05T00:25:18.375Z,61.15
2022-11-05T00:27:52.171Z,64.28
2022-11-05T00:30:25.447Z,63.19
2022-11-05T00:32:53.105Z,60.91
2022-11-05T00:35:22.290Z,59.17
2022-11-05T00:37:50.702Z,57.10
2022-11-05T00:40:19.920Z,59.03
2022-11-05T00:43:06.325Z,62.36
2022-11-05T00:45:33.961Z,64.79
2022-11-05T00:48:20.126Z,60.72
2022-11-05T00:50:47.844Z,57.29
2022-11-05T00:53:15.586Z,57.83
2022-11-05T00:55:46.013Z,59.91
2022-11-05T00:58:17.383Z,61.13
2022-11-05T01:00:52.940Z,63.95
2022-11-05T01:03:24.191Z,63.67
2022-11-05T01:05:59.214Z,61.61
2022-11-05T01:08:28.220Z,61.16
2022-11-05T01:10:57.527Z,57.52
2022-11-05T01:13:30.280Z,56.59
2022-11-05T01:15:57.977Z,58.44
2022-11-05T01:18:25.609Z,61.17
2022-11-05T01:20:53.331Z,65.25
2022-11-05T01:23:21.493Z,63.24
2022-11-05T01:25:49.393Z,59.77
2022-11-05T01:28:17.078Z,55.68
2022-11-05T01:30:44.835Z,54.80
2022-11-05T01:33:12.906Z,57.07
2022-11-05T01:35:40.704Z,59.36
2022-11-05T01:38:08.749Z,61.66
2022-11-05T01:40:36.393Z,65.35
2022-11-05T01:43:14.410Z,63.04
2022-11-05T01:45:42.984Z,59.02
2022-11-05T01:48:18.738Z,55.80
2022-11-05T01:50:49.344Z,56.94
2022-11-05T01:53:48.190Z,57.95
2022-11-05T01:56:26.213Z,61.65
2022-11-05T01:59:06.752Z,65.22
2022-11-05T02:01:34.549Z,63.29
2022-11-05T02:04:07.237Z,57.81
2022-11-05T02:06:38.994Z,56.56
2022-11-05T02:09:11.419Z,58.34
2022-11-05T02:11:39.084Z,60.34
2022-11-05T02:14:08.885Z,64.21
2022-11-05T02:16:42.204Z,65.00
2022-11-05T02:19:28.325Z,60.44
2022-11-05T02:22:24.949Z,55.83
2022-11-05T02:25:11.001Z,55.87
2022-11-05T02:27:41.451Z,59.69
2022-11-05T02:30:37.073Z,61.68
2022-11-05T02:33:43.256Z,65.40
2022-11-05T02:36:17.107Z,63.85
2022-11-05T02:38:59.485Z,60.09
2022-11-05T02:42:17.961Z,55.95
2022-11-05T02:45:22.625Z,55.40
2022-11-05T02:47:55.665Z,58.65
2022-11-05T02:50:51.252Z,61.41
2022-11-05T02:53:38.042Z,65.87
2022-11-05T02:56:13.321Z,63.66
2022-11-05T02:58:41.639Z,61.09
2022-11-05T03:01:12.497Z,58.41
2022-11-05T03:04:01.020Z,57.07
2022-11-05T03:06:41.286Z,59.84
2022-11-05T03:09:20.934Z,62.27
2022-11-05T03:12:13.265Z,65.57
2022-11-05T03:15:03.339Z,64.47
2022-11-05T03:17:43.146Z,59.96
2022-11-05T03:20:26.272Z,56.64
2022-11-05T03:23:12.714Z,57.98
2022-11-05T03:25:47.293Z,59.47
2022-11-05T03:28:15.331Z,63.45
2022-11-05T03:30:44.984Z,66.99
2022-11-05T03:33:19.097Z,61.73
2022-11-05T03:35:51.760Z,58.27
2022-11-05T03:38:25.505Z,57.63
2022-11-05T03:40:57.149Z,59.36
2022-11-05T03:43:29.547Z,60.85
2022-11-05T03:46:02.522Z,64.38
2022-11-05T03:48:32.920Z,66.60
2022-11-05T03:51:25.465Z,63.97
2022-11-05T03:53:57.663Z,60.88
2022-11-05T03:56:38.250Z,58.18
2022-11-05T03:59:09.349Z,57.38
2022-11-05T04:01:38.846Z,58.93
2022-11-05T04:04:06.977Z,63.10
2022-11-05T04:06:53.639Z,65.04
2022-11-05T04:09:39.815Z,61.80
2022-11-05T04:12:28.659Z,61.25
2022-11-05T04:14:56.993Z,58.38
2022-11-05T04:17:24.760Z,57.99
2022-11-05T04:20:10.792Z,59.26
2022-11-05T04:22:57.263Z,61.08
2022-11-05T04:25:24.986Z,66.74
2022-11-05T04:27:53.467Z,65.59
2022-11-05T04:30:23.965Z,62.40
2022-11-05T04:33:05.641Z,60.44
2022-11-05T04:35:36.476Z,58.88
2022-11-05T04:38:05.851Z,56.81
2022-11-05T04:40:34.052Z,58.30
2022-11-05T04:43:02.150Z,59.89
2022-11-05T04:45:34.348Z,62.88
2022-11-05T04:48:03.931Z,67.35
2022-11-05T04:50:32.633Z,65.24
2022-11-05T04:53:01.016Z,62.40
2022-11-05T04:55:28.954Z,58.40
2022-11-05T04:57:56.651Z,55.78
2022-11-05T05:00:25.051Z,57.13
2022-11-05T05:02:52.731Z,60.21
2022-11-05T05:05:22.593Z,64.69
2022-11-05T05:07:50.292Z,63.42
2022-11-05T05:10:18.054Z,60.15
2022-11-05T05:12:45.691Z,57.20
2022-11-05T05:15:13.514Z,58.60
2022-11-05T05:17:41.224Z,61.50
2022-11-05T05:20:27.671Z,65.85
2022-11-05T05:22:56.055Z,63.49
2022-11-05T05:25:23.961Z,60.64
2022-11-05T05:27:51.837Z,57.26
2022-11-05T05:30:19.494Z,56.25
2022-11-05T05:32:47.236Z,57.62
2022-11-05T05:35:14.891Z,59.95
2022-11-05T05:37:43.157Z,66.07
2022-11-05T05:40:11.300Z,65.86
2022-11-05T05:42:42.942Z,61.32
2022-11-05T05:45:12.356Z,56.95
2022-11-05T05:47:40.140Z,56.67
2022-11-05T05:50:08.175Z,58.73
2022-11-05T05:52:35.850Z,61.47
2022-11-05T05:55:03.850Z,66.88
2022-11-05T05:57:31.560Z,64.67
2022-11-05T06:00:00.952Z,60.98
2022-11-05T06:02:31.020Z,57.08
2022-11-05T06:04:58.738Z,56.40
2022-11-05T06:07:26.925Z,58.53
2022-11-05T06:09:54.611Z,60.11
2022-11-05T06:12:22.321Z,65.94
2022-11-05T06:14:49.924Z,66.45
2022-11-05T06:17:17.603Z,63.12
2022-11-05T06:19:45.264Z,60.23
2022-11-05T06:22:12.945Z,56.21
2022-11-05T06:24:40.561Z,55.34
2022-11-05T06:27:08.237Z,57.33
2022-11-05T06:29:35.849Z,59.68
2022-11-05T06:32:03.668Z,61.61
2022-11-05T06:34:31.303Z,67.16
2022-11-05T06:36:59.686Z,66.40
2022-11-05T06:39:27.373Z,61.93
2022-11-05T06:42:17.120Z,57.40
2022-11-05T06:44:42.631Z,56.41
2022-11-05T06:47:11.258Z,58.83
2022-11-05T06:49:38.941Z,60.23
2022-11-05T06:52:06.654Z,61.66
2022-11-05T06:54:34.289Z,67.33
2022-11-05T06:57:02.025Z,67.37
2022-11-05T06:59:29.973Z,61.81
2022-11-05T07:01:57.768Z,58.13
2022-11-05T07:04:25.463Z,56.55
2022-11-05T07:06:53.109Z,58.14
2022-11-05T07:09:20.734Z,60.07
2022-11-05T07:11:48.372Z,61.47
2022-11-05T07:14:16.067Z,65.65
2022-11-05T07:16:44.020Z,67.08
2022-11-05T07:19:11.810Z,61.64
2022-11-05T07:21:39.594Z,56.97
2022-11-05T07:24:07.804Z,56.09
2022-11-05T07:26:35.548Z,57.91
2022-11-05T07:29:03.846Z,59.49
2022-11-05T07:31:31.615Z,61.45
2022-11-05T07:33:59.439Z,65.34
2022-11-05T07:36:27.052Z,66.71
2022-11-05T07:38:59.938Z,61.50
2022-11-05T07:41:29.390Z,57.06
2022-11-05T07:43:57.568Z,55.78
2022-11-05T07:46:25.280Z,57.19
2022-11-05T07:48:52.996Z,59.48
2022-11-05T07:51:20.658Z,61.88
2022-11-05T07:53:48.593Z,66.25
2022-11-05T07:56:16.557Z,65.58
2022-11-05T07:58:44.502Z,61.59
2022-11-05T08:01:12.305Z,59.83
2022-11-05T08:03:40.269Z,55.42
2022-11-05T08:06:08.183Z,55.56
2022-11-05T08:08:35.933Z,58.25
2022-11-05T08:11:08.334Z,60.58
2022-11-05T08:13:36.749Z,64.82
2022-11-05T08:16:05.857Z,65.10
2022-11-05T08:18:34.649Z,59.65
2022-11-05T08:21:04.738Z,55.23
2022-11-05T08:23:32.835Z,55.69
2022-11-05T08:26:02.940Z,57.68
2022-11-05T08:28:31.150Z,60.44
2022-11-05T08:30:58.913Z,64.96
2022-11-05T08:33:27.541Z,66.38
2022-11-05T08:35:55.248Z,61.11
2022-11-05T08:38:23.685Z,56.29
2022-11-05T08:40:57.419Z,55.88
2022-11-05T08:43:26.487Z,56.87
2022-11-05T08:45:55.051Z,60.48
2022-11-05T08:48:22.865Z,64.74
2022-11-05T08:50:50.646Z,64.57
2022-11-05T08:53:18.763Z,59.99
2022-11-05T08:55:47.745Z,55.83
2022-11-05T08:58:17.024Z,54.66
2022-11-05T09:00:47.561Z,55.95
2022-11-05T09:03:18.626Z,58.66
2022-11-05T09:05:47.263Z,60.14
2022-11-05T09:08:18.239Z,62.35
2022-11-05T09:10:47.872Z,68.48
2022-11-05T09:13:19.461Z,63.73
2022-11-05T09:15:49.270Z,57.86
2022-11-05T09:18:18.870Z,56.42
2022-11-05T09:20:47.810Z,57.60
2022-11-05T09:23:16.157Z,60.03
2022-11-05T09:25:45.329Z,61.32
2022-11-05T09:28:18.948Z,66.30
2022-11-05T09:30:48.914Z,65.56
2022-11-05T09:33:18.957Z,60.49
2022-11-05T09:35:47.159Z,57.02
2022-11-05T09:38:15.094Z,55.96
2022-11-05T09:40:57.954Z,57.21
2022-11-05T09:43:38.317Z,59.67
2022-11-05T09:46:17.357Z,62.68
2022-11-05T09:48:49.790Z,67.10
2022-11-05T09:51:23.728Z,63.81
2022-11-05T09:53:53.619Z,57.26
2022-11-05T09:56:21.309Z,54.33
2022-11-05T09:58:54.876Z,55.22
2022-11-05T10:01:28.187Z,58.45
2022-11-05T10:03:59.685Z,59.75
2022-11-05T10:06:28.431Z,61.85
2022-11-05T10:09:07.974Z,66.74
2022-11-05T10:11:41.969Z,65.44
2022-11-05T10:14:22.787Z,60.58
2022-11-05T10:16:57.991Z,55.51
2022-11-05T10:19:48.159Z,55.11
2022-11-05T10:22:18.200Z,57.13
2022-11-05T10:24:50.735Z,58.93
2022-11-05T10:27:24.197Z,60.83
2022-11-05T10:29:52.921Z,66.55
2022-11-05T10:32:28.381Z,66.20
2022-11-05T10:34:59.714Z,60.94
2022-11-05T10:37:28.679Z,55.89
2022-11-05T10:39:56.513Z,55.43
2022-11-05T10:42:30.186Z,57.46
2022-11-05T10:45:06.891Z,59.75
2022-11-05T10:47:58.807Z,65.99
2022-11-05T10:50:29.575Z,63.17
2022-11-05T10:53:01.050Z,57.73
2022-11-05T10:55:32.696Z,56.50
2022-11-05T10:58:31.238Z,58.32
2022-11-05T11:00:59.118Z,59.96
2022-11-05T11:03:47.093Z,66.14
2022-11-05T11:06:24.522Z,65.21
2022-11-05T11:08:55.761Z,60.41
2022-11-05T11:11:29.109Z,56.64
2022-11-05T11:13:56.784Z,57.16
2022-11-05T11:16:26.821Z,59.55
2022-11-05T11:18:58.453Z,60.63
2022-11-05T11:21:28.261Z,66.10
2022-11-05T11:24:03.766Z,65.96
2022-11-05T11:26:40.191Z,60.99
2022-11-05T11:29:17.960Z,56.60
2022-11-05T11:31:45.994Z,56.83
2022-11-05T11:34:27.655Z,58.92
2022-11-05T11:37:19.195Z,60.17
2022-11-05T11:39:52.413Z,67.20
2022-11-05T11:42:32.225Z,63.18
2022-11-05T11:45:05.848Z,58.36
2022-11-05T11:47:33.759Z,56.59
2022-11-05T11:50:02.679Z,58.44
2022-11-05T11:52:33.565Z,60.23
2022-11-05T11:55:21.098Z,65.05
2022-11-05T11:58:07.055Z,63.51
2022-11-05T12:00:41.803Z,57.38
2022-11-05T12:03:41.490Z,56.73
2022-11-05T12:06:47.449Z,58.77
2022-11-05T12:09:25.862Z,61.13
2022-11-05T12:12:13.294Z,67.49
2022-11-05T12:14:53.021Z,63.76
2022-11-05T12:17:50.569Z,59.45
2022-11-05T12:20:38.597Z,56.67
2022-11-05T12:23:53.832Z,58.10
2022-11-05T12:26:57.250Z,60.39
2022-11-05T12:29:46.008Z,66.06
2022-11-05T12:32:38.873Z,62.64
2022-11-05T12:35:44.123Z,58.58
2022-11-05T12:38:58.900Z,56.47
2022-11-05T12:41:40.562Z,58.37
2022-11-05T12:44:20.094Z,60.42
2022-11-05T12:47:09.377Z,66.15
2022-11-05T12:49:46.374Z,65.62
2022-11-05T12:52:49.037Z,62.86
2022-11-05T12:55:20.540Z,60.21
2022-11-05T12:57:52.309Z,56.98
2022-11-05T13:00:26.081Z,56.93
2022-11-05T13:03:22.157Z,59.13
2022-11-05T13:06:05.506Z,61.33
2022-11-05T13:08:37.758Z,67.89
2022-11-05T13:11:17.529Z,65.53
2022-11-05T13:14:10.201Z,60.56
2022-11-05T13:16:43.408Z,56.72
2022-11-05T13:19:19.080Z,57.46
2022-11-05T13:21:50.782Z,59.57
2022-11-05T13:24:31.089Z,60.99
2022-11-05T13:27:11.046Z,66.91
2022-11-05T13:29:47.463Z,64.62
2022-11-05T13:32:31.245Z,59.35
2022-11-05T13:35:02.549Z,56.10
2022-11-05T13:38:00.134Z,57.88
2022-11-05T13:40:45.272Z,60.16
2022-11-05T13:43:52.288Z,65.22
2022-11-05T13:46:32.041Z,63.90
2022-11-05T13:49:21.594Z,61.08
2022-11-05T13:51:56.117Z,57.43
2022-11-05T13:54:42.880Z,57.93
2022-11-05T13:57:35.140Z,59.96
2022-11-05T14:00:20.139Z,61.62
2022-11-05T14:03:04.478Z,67.07
2022-11-05T14:05:36.019Z,65.38
2022-11-05T14:08:20.032Z,61.03
2022-11-05T14:11:28.230Z,57.50
2022-11-05T14:14:01.211Z,58.38
2022-11-05T14:16:47.537Z,60.45
2022-11-05T14:19:18.240Z,65.73
2022-11-05T14:21:59.110Z,63.17
2022-11-05T14:24:28.313Z,57.57
2022-11-05T14:27:02.040Z,55.53
2022-11-05T14:29:46.343Z,57.50
2022-11-05T14:32:17.049Z,60.33
2022-11-05T14:34:44.699Z,65.01
2022-11-05T14:37:12.549Z,64.23
2022-11-05T14:39:41.247Z,59.46
2022-11-05T14:42:22.290Z,55.97
2022-11-05T14:45:10.248Z,57.17
2022-11-05T14:47:41.069Z,59.15
2022-11-05T14:50:26.752Z,60.54
2022-11-05T14:52:57.433Z,66.19
2022-11-05T14:55:29.564Z,63.99
2022-11-05T14:57:57.156Z,59.62
2022-11-05T15:00:40.702Z,56.11
2022-11-05T15:03:33.394Z,57.21
2022-11-05T15:06:22.451Z,59.51
2022-11-05T15:08:50.053Z,61.32
2022-11-05T15:11:20.587Z,65.40
2022-11-05T15:13:54.250Z,64.96
2022-11-05T15:16:25.114Z,60.50
2022-11-05T15:18:55.422Z,56.82
2022-11-05T15:21:24.944Z,57.03
2022-11-05T15:23:58.961Z,58.91
2022-11-05T15:27:09.464Z,60.46
2022-11-05T15:29:37.763Z,65.97
2022-11-05T15:32:05.651Z,64.94
2022-11-05T15:34:35.756Z,60.30
2022-11-05T15:37:23.499Z,57.49
2022-11-05T15:39:55.831Z,57.64
2022-11-05T15:42:27.125Z,60.02
2022-11-05T15:45:00.031Z,61.51
2022-11-05T15:47:34.446Z,66.44
2022-11-05T15:50:14.061Z,66.82
2022-11-05T15:52:51.764Z,63.22
2022-11-05T15:55:24.142Z,62.50
2022-11-05T15:58:06.382Z,61.82
2022-11-05T16:00:36.649Z,59.95
2022-11-05T16:03:18.972Z,56.96
2022-11-05T16:05:48.656Z,56.32
2022-11-05T16:08:21.811Z,58.33
2022-11-05T16:10:53.318Z,60.92
2022-11-05T16:13:41.479Z,65.73
2022-11-05T16:16:15.405Z,65.80
2022-11-05T16:18:45.290Z,62.03
2022-11-05T16:21:18.939Z,60.16
2022-11-05T16:23:55.758Z,58.19
2022-11-05T16:29:39.230Z,59.33
2022-11-05T16:32:17.215Z,64.29
2022-11-05T16:34:53.796Z,65.34
2022-11-05T16:37:25.012Z,62.65
2022-11-05T16:39:53.867Z,61.00
2022-11-05T16:42:24.787Z,59.74
2022-11-05T16:44:55.101Z,57.88
2022-11-05T16:47:23.425Z,57.64
2022-11-05T16:49:51.577Z,60.25
2022-11-05T16:52:19.807Z,64.09
2022-11-05T16:54:47.932Z,65.36
2022-11-05T16:57:27.287Z,63.60
2022-11-05T16:59:56.976Z,61.53
2022-11-05T17:02:25.785Z,60.00
2022-11-05T17:04:53.912Z,59.41
2022-11-05T17:07:21.689Z,57.83
2022-11-05T17:09:50.580Z,59.09
2022-11-05T17:12:18.393Z,63.19
2022-11-05T17:14:46.197Z,65.95
2022-11-05T17:17:14.937Z,64.56
2022-11-05T17:19:42.923Z,62.29
2022-11-05T17:22:13.858Z,61.50
2022-11-05T17:24:41.680Z,60.77
2022-11-05T17:27:09.634Z,60.08
2022-11-05T17:29:37.786Z,60.06
2022-11-05T17:32:06.022Z,59.85
2022-11-05T17:34:34.143Z,60.13
2022-11-05T17:37:02.122Z,58.66
2022-11-05T17:39:31.786Z,58.11
2022-11-05T17:42:00.030Z,60.24
2022-11-05T17:44:29.969Z,64.09
2022-11-05T17:46:57.706Z,64.78
2022-11-05T17:49:25.510Z,62.99
2022-11-05T17:51:53.749Z,61.27
2022-11-05T17:54:21.803Z,60.58
2022-11-05T17:56:54.875Z,59.95
2022-11-05T17:59:22.713Z,59.91
2022-11-05T18:01:51.687Z,59.82
2022-11-05T18:04:19.572Z,59.95
2022-11-05T18:06:47.662Z,59.64
2022-11-05T18:09:15.548Z,58.95
2022-11-05T18:11:43.949Z,60.08
2022-11-05T18:14:11.936Z,64.48
2022-11-05T18:16:39.886Z,66.70
2022-11-05T18:19:07.589Z,64.56
2022-11-05T18:21:35.313Z,61.47
2022-11-05T18:24:04.399Z,59.73
2022-11-05T18:26:33.117Z,58.31
2022-11-05T18:29:04.466Z,60.34
2022-11-05T18:31:32.459Z,64.78
2022-11-05T18:34:00.587Z,65.49
2022-11-05T18:36:30.881Z,62.93
2022-11-05T18:39:01.370Z,62.05
2022-11-05T18:41:29.506Z,61.66
2022-11-05T18:44:02.085Z,61.60
2022-11-05T18:46:56.452Z,60.85
2022-11-05T18:49:18.941Z,59.94
2022-11-05T18:51:46.601Z,58.48
2022-11-05T18:54:14.503Z,59.50
2022-11-05T18:56:45.613Z,63.74
2022-11-05T18:59:35.870Z,64.92
2022-11-05T19:02:05.800Z,64.08
2022-11-05T19:04:35.730Z,62.25
2022-11-05T19:07:05.415Z,61.57
2022-11-05T19:09:38.376Z,61.36
2022-11-05T19:12:07.858Z,60.85
2022-11-05T19:14:35.652Z,61.14
2022-11-05T19:17:03.463Z,60.78
2022-11-05T19:19:31.223Z,59.24
2022-11-05T19:21:59.040Z,57.45
2022-11-05T19:24:26.753Z,58.38
2022-11-05T19:26:54.515Z,61.74
2022-11-05T19:29:22.294Z,66.10
2022-11-05T19:31:50.053Z,64.92
2022-11-05T19:34:17.807Z,61.54
2022-11-05T19:36:45.474Z,60.28
2022-11-05T19:39:14.657Z,57.62
2022-11-05T19:41:42.638Z,57.30
2022-11-05T19:44:10.514Z,58.95
2022-11-05T19:46:38.465Z,62.30
2022-11-05T19:49:06.126Z,67.63
2022-11-05T19:51:33.961Z,65.35
2022-11-05T19:54:03.243Z,61.68
2022-11-05T19:56:33.703Z,59.88
2022-11-05T19:59:03.381Z,57.53
2022-11-05T20:01:31.447Z,57.49
2022-11-05T20:04:00.224Z,59.00
2022-11-05T20:06:32.265Z,63.13
2022-11-05T20:11:54.977Z,62.63
2022-11-05T20:14:24.748Z,60.50
2022-11-05T20:16:53.702Z,58.36
2022-11-05T20:19:22.984Z,57.89
2022-11-05T20:21:50.707Z,59.91
2022-11-05T20:24:24.850Z,64.29
2022-11-05T20:26:54.910Z,65.66
2022-11-05T20:29:23.653Z,63.19
2022-11-05T20:31:53.436Z,61.79
2022-11-05T20:34:21.113Z,58.30
2022-11-05T20:36:48.742Z,57.64
2022-11-05T20:39:18.279Z,59.41
2022-11-05T20:41:45.840Z,60.57
2022-11-05T20:44:13.850Z,61.59
2022-11-05T20:46:41.601Z,67.36
2022-11-05T20:49:09.345Z,67.50
2022-11-05T20:51:37.114Z,63.31
2022-11-05T20:54:05.347Z,61.15
2022-11-05T20:56:37.045Z,60.49
2022-11-05T20:59:05.501Z,59.93
2022-11-05T21:01:34.631Z,57.51
2022-11-05T21:04:03.293Z,57.87
2022-11-05T21:06:31.612Z,59.23
2022-11-05T21:08:59.437Z,61.16
2022-11-05T21:11:27.414Z,66.20
2022-11-05T21:13:55.082Z,65.33
2022-11-05T21:16:22.795Z,64.34
2022-11-05T21:18:50.566Z,63.20
2022-11-05T21:21:20.443Z,62.20
2022-11-05T21:23:48.396Z,59.79
2022-11-05T21:26:18.035Z,57.01
2022-11-05T21:28:45.871Z,57.66
2022-11-05T21:31:13.743Z,59.57
2022-11-05T21:33:41.570Z,61.03
2022-11-05T21:36:12.382Z,66.12
2022-11-05T21:38:41.353Z,66.71
2022-11-05T21:41:11.493Z,64.36
2022-11-05T21:43:41.752Z,61.96
2022-11-05T21:46:12.115Z,61.35
2022-11-05T21:48:39.849Z,60.74
2022-11-05T21:51:26.217Z,60.77
2022-11-05T21:54:12.675Z,58.70
2022-11-05T21:56:59.141Z,57.14
2022-11-05T21:59:45.586Z,59.01
2022-11-05T22:02:22.476Z,61.32
2022-11-05T22:04:54.837Z,65.50
2022-11-05T22:07:25.364Z,66.95
2022-11-05T22:09:53.505Z,63.12
2022-11-05T22:12:21.593Z,59.76
2022-11-05T22:14:49.354Z,56.90
2022-11-05T22:17:18.303Z,57.34
2022-11-05T22:19:45.988Z,59.17
2022-11-05T22:22:14.173Z,60.32
2022-11-05T22:24:42.584Z,64.67
2022-11-05T22:27:16.251Z,65.58
2022-11-05T22:29:44.162Z,64.14
2022-11-05T22:32:12.122Z,60.66
2022-11-05T22:34:40.057Z,57.04
2022-11-05T22:37:07.863Z,56.68
2022-11-05T22:39:35.562Z,59.16
2022-11-05T22:42:08.269Z,60.72
2022-11-05T22:44:36.767Z,65.79
2022-11-05T22:47:05.520Z,64.47
2022-11-05T22:49:33.979Z,61.79
2022-11-05T22:52:02.259Z,58.11
2022-11-05T22:54:32.714Z,56.45
2022-11-05T22:57:03.191Z,57.82
2022-11-05T22:59:30.873Z,59.76
2022-11-05T23:01:58.665Z,64.69
2022-11-05T23:04:26.904Z,65.16
2022-11-05T23:07:13.045Z,62.87
2022-11-05T23:09:59.127Z,60.65
2022-11-05T23:12:33.111Z,55.77
2022-11-05T23:15:03.499Z,56.18
2022-11-05T23:17:50.314Z,57.97
2022-11-05T23:20:40.178Z,60.10
2022-11-05T23:23:30.848Z,66.04
2022-11-05T23:25:59.892Z,65.52
2022-11-05T23:28:27.527Z,63.12
2022-11-05T23:31:33.496Z,61.27
2022-11-05T23:34:01.112Z,59.85
2022-11-05T23:37:07.257Z,57.70
2022-11-05T23:39:41.184Z,57.56
2022-11-05T23:42:29.368Z,58.82
2022-11-05T23:45:15.718Z,60.95
2022-11-05T23:48:02.121Z,67.15
2022-11-05T23:50:35.431Z,66.04
2022-11-05T23:53:06.664Z,64.98
2022-11-05T23:55:34.641Z,62.49
2022-11-05T23:58:02.454Z,59.48
